Flight Track Log - Related Links

Times and Time Zones

All times are in EDT time to prevent confusion due to time zone crossing. See the DAL2352 flight status page for this flight to view local times or setup timezone preferences in your user account.

Time Position Orientation Groundspeed Altitude Reporting Facility
EDT Latitude Longitude Course Direction KTS MPH feet Rate Location/Type
Wed 06:22:13 AM 42.7236 -73.8081 180° South 152 175 1,400  Level Boston Center
Wed 06:23:20 AM 42.6836 -73.8439 213° Southwest 216 249 3,500 1,942 Climbing Boston Center
Wed 06:24:32 AM 42.7347 -73.9183 313° West 246 283 5,900 2,318 Climbing Boston Center
Wed 06:25:00 AM 42.4391 -74.2346 198° South  Level Estimated
Wed 06:25:32 AM 42.7942 -73.9850 321° Northwest 264 304 8,600  Level Boston Center
Wed 06:26:00 AM 42.3613 -74.3421 200° South  Level Estimated
Wed 06:26:32 AM 42.8453 -74.0597 313° West 270 311 11,200  Level Boston Center
Wed 06:27:00 AM 42.2835 -74.4493 180° South  Level Estimated
Wed 06:27:32 AM 42.8003 -74.1381 232° Southwest 205 236 12,800  Level Boston Center
Wed 06:28:32 AM 42.6981 -74.1464 183° South 274 315 14,100 1,500 Climbing Boston Center
Wed 06:29:32 AM 42.5983 -74.1239 171° South 376 433 15,800 2,000 Climbing Boston Center
Wed 06:30:32 AM 42.4758 -74.0953 170° South 411 473 18,100 1,900 Climbing Boston Center
Wed 06:31:32 AM 42.3742 -74.0644 167° South 411 473 19,600 1,500 Climbing Boston Center
Wed 06:32:32 AM 42.2558 -74.0333 169° South 424 488 21,100 1,500 Climbing Boston Center
Wed 06:33:32 AM 42.1328 -74.0331 180° South 436 502 22,600 1,450 Climbing Boston Center
Wed 06:34:32 AM 42.0217 -74.0833 199° South 419 482 24,000 1,440 Climbing Boston Center
Wed 06:36:27 AM 41.7969 -74.2017 201° Southwest 430 495 26,800 1,509 Climbing New York Center
Wed 06:37:27 AM 41.6831 -74.2514 198° South 430 495 28,400 1,328 Climbing New York Center
Wed 06:38:29 AM 41.5942 -74.2939 200° South 430 495 29,500 1,180 Climbing New York Center
Wed 06:39:29 AM 41.4781 -74.3542 201° Southwest 424 488 30,800 1,271 Climbing New York Center
Wed 06:40:27 AM 41.3703 -74.4008 198° South 418 481 32,000 1,017 Climbing New York Center
Wed 06:41:27 AM 41.2564 -74.4500 198° South 418 481 32,800 836 Climbing New York Center
Wed 06:42:29 AM 41.1508 -74.4964 198° South 418 481 33,700 590 Climbing New York Center
Wed 06:43:29 AM 41.0508 -74.5625 207° Southwest 413 475 34,000 150 Climbing New York Center
Wed 06:44:29 AM 40.9683 -74.6594 222° Southwest 400 460 34,000  Level New York Center
Wed 06:45:27 AM 40.8878 -74.7619 224° Southwest 400 460 34,000  Level New York Center
Wed 06:46:28 AM 40.8114 -74.8672 226° Southwest 400 460 34,000  Level New York Center
Wed 06:47:28 AM 40.7347 -74.9775 227° Southwest 405 466 34,000  Level New York Center
Wed 06:48:27 AM 40.6639 -75.0881 230° Southwest 405 466 34,000  Level New York Center
Wed 06:49:28 AM 40.5931 -75.2011 230° Southwest 405 466 34,000  Level New York Center
Wed 06:50:27 AM 40.5200 -75.3111 229° Southwest 405 466 34,000  Level New York Center
Wed 06:51:28 AM 40.4469 -75.4236 230° Southwest 410 472 34,000  Level New York Center
Wed 06:52:27 AM 40.3758 -75.5333 230° Southwest 410 472 34,000  Level New York Center
Wed 06:53:28 AM 40.3025 -75.6453 229° Southwest 410 472 34,000  Level New York Center
Wed 06:54:28 AM 40.2292 -75.7544 229° Southwest 410 472 34,000  Level New York Center
Wed 06:56:16 AM 40.1006 -75.9550 230° Southwest 411 473 34,000  Level Washington Center
Wed 06:57:14 AM 40.0253 -76.0628 228° Southwest 411 473 34,000  Level Washington Center
Wed 06:58:15 AM 39.9539 -76.1733 230° Southwest 411 473 34,000  Level Washington Center
Wed 06:59:15 AM 39.8844 -76.2836 231° Southwest 406 467 34,000  Level Washington Center
Wed 07:00:16 AM 39.8089 -76.3936 228° Southwest 406 467 34,000  Level Washington Center
Wed 07:01:16 AM 39.7372 -76.5008 229° Southwest 406 467 34,000  Level Washington Center
Wed 07:02:17 AM 39.6594 -76.6103 227° Southwest 411 473 34,000  Level Washington Center
Wed 07:03:14 AM 39.5856 -76.7197 229° Southwest 411 473 34,000  Level Washington Center
Wed 07:04:16 AM 39.5136 -76.8289 230° Southwest 411 473 34,000  Level Washington Center
Wed 07:05:17 AM 39.4394 -76.9406 229° Southwest 411 473 34,000  Level Washington Center
Wed 07:06:15 AM 39.3653 -77.0464 228° Southwest 411 473 34,000  Level Washington Center
Wed 07:07:16 AM 39.2911 -77.1522 228° Southwest 411 473 34,000  Level Washington Center
Wed 07:08:16 AM 39.2144 -77.2578 227° Southwest 411 473 34,000  Level Washington Center
Wed 07:09:16 AM 39.1400 -77.3633 228° Southwest 411 473 34,000  Level Washington Center
Wed 07:10:17 AM 39.0656 -77.4711 228° Southwest 411 473 34,000  Level Washington Center
Wed 07:11:15 AM 38.9803 -77.5889 227° Southwest 411 473 34,000  Level Washington Center
Wed 07:12:14 AM 38.9119 -77.6886 229° Southwest 416 479 34,000  Level Washington Center
Wed 07:13:15 AM 38.8283 -77.8061 228° Southwest 410 472 34,000  Level Washington Center
Wed 07:14:16 AM 38.7492 -77.9208 229° Southwest 420 483 34,000  Level Washington Center
Wed 07:15:17 AM 38.6742 -78.0247 227° Southwest 414 476 34,000  Level Washington Center
Wed 07:16:14 AM 38.5989 -78.1311 228° Southwest 407 468 34,000  Level Washington Center
Wed 07:17:15 AM 38.5217 -78.2294 225° Southwest 407 468 34,000  Level Washington Center
Wed 07:18:17 AM 38.4322 -78.3164 217° Southwest 407 468 34,000  Level Washington Center
Wed 07:19:17 AM 38.3386 -78.3950 213° Southwest 407 468 34,000  Level Washington Center
Wed 07:20:15 AM 38.2453 -78.4683 212° Southwest 407 468 34,000  Level Washington Center
Wed 07:21:16 AM 38.1536 -78.5439 213° Southwest 407 468 34,000  Level Washington Center
Wed 07:22:17 AM 38.0561 -78.6139 209° Southwest 401 461 34,000  Level Washington Center
Wed 07:23:15 AM 37.9522 -78.6703 203° Southwest 401 461 34,000  Level Washington Center
Wed 07:24:15 AM 37.8792 -78.7567 223° Southwest 401 461 34,000  Level Washington Center
Wed 07:25:16 AM 37.8133 -78.8750 235° Southwest 396 456 34,000  Level Washington Center
Wed 07:26:16 AM 37.7519 -78.9906 236° Southwest 408 470 34,000  Level Washington Center
Wed 07:27:17 AM 37.6878 -79.1108 236° Southwest 414 476 34,000  Level Washington Center
Wed 07:28:15 AM 37.6169 -79.2467 237° Southwest 420 483 34,000  Level Washington Center
Wed 07:29:16 AM 37.5508 -79.3664 235° Southwest 420 483 34,000  Level Washington Center
Wed 07:30:16 AM 37.4844 -79.4836 235° Southwest 425 489 34,000  Level Washington Center
Wed 07:31:17 AM 37.4117 -79.6056 233° Southwest 425 489 34,000  Level Washington Center
Wed 07:32:17 AM 37.3469 -79.7250 236° Southwest 431 496 34,000  Level Washington Center
Wed 07:33:17 AM 37.2844 -79.8389 235° Southwest 426 490 34,000  Level Washington Center
Wed 07:34:15 AM 37.2178 -79.9578 235° Southwest 419 482 34,000  Level Washington Center
Wed 07:36:17 AM 37.0906 -80.1853 235° Southwest 410 472 34,000  Level Atlanta Center
Wed 07:37:17 AM 37.0153 -80.3111 233° Southwest 419 482 34,000  Level Atlanta Center
Wed 07:38:17 AM 36.9411 -80.4186 229° Southwest 419 482 34,000  Level Atlanta Center
Wed 07:39:17 AM 36.8631 -80.5233 227° Southwest 414 476 34,000  Level Atlanta Center
Wed 07:40:17 AM 36.7925 -80.6144 226° Southwest 414 476 34,000  Level Atlanta Center
Wed 07:41:17 AM 36.7100 -80.7242 227° Southwest 399 459 34,000  Level Atlanta Center
Wed 07:42:17 AM 36.6314 -80.8283 227° Southwest 407 468 34,000  Level Atlanta Center
Wed 07:43:17 AM 36.5550 -80.9297 227° Southwest 407 468 34,000  Level Atlanta Center
Wed 07:44:17 AM 36.4761 -81.0308 226° Southwest 407 468 34,000  Level Atlanta Center
Wed 07:45:17 AM 36.4014 -81.1342 228° Southwest 407 468 34,000  Level Atlanta Center
Wed 07:46:17 AM 36.3225 -81.2375 227° Southwest 407 468 34,000  Level Atlanta Center
Wed 07:47:17 AM 36.2433 -81.3408 226° Southwest 413 475 34,000  Level Atlanta Center
Wed 07:48:17 AM 36.1664 -81.4436 227° Southwest 407 468 34,000  Level Atlanta Center
Wed 07:49:17 AM 36.0994 -81.5306 226° Southwest 407 468 34,000  Level Atlanta Center
Wed 07:50:17 AM 36.0200 -81.6333 226° Southwest 412 474 34,000  Level Atlanta Center
Wed 07:51:17 AM 35.9408 -81.7381 227° Southwest 403 464 34,000  Level Atlanta Center
Wed 07:52:17 AM 35.8633 -81.8378 226° Southwest 410 472 34,000  Level Atlanta Center
Wed 07:53:17 AM 35.7836 -81.9372 225° Southwest 403 464 34,000  Level Atlanta Center
Wed 07:54:17 AM 35.7122 -82.0336 228° Southwest 397 457 34,000  Level Atlanta Center
Wed 07:55:17 AM 35.6367 -82.1275 225° Southwest 392 451 34,000  Level Atlanta Center
Wed 07:56:17 AM 35.5608 -82.2236 226° Southwest 387 445 34,000 -600 Level Atlanta Center
Wed 07:57:17 AM 35.4872 -82.3144 225° Southwest 381 438 32,800 -1,400 Descending Atlanta Center
Wed 07:58:17 AM 35.4153 -82.4053 226° Southwest 381 438 31,200 -1,550 Descending Atlanta Center
Wed 07:59:17 AM 35.3478 -82.4983 228° Southwest 381 438 29,700 -1,450 Descending Atlanta Center
Wed 08:00:17 AM 35.3261 -82.6158 257° West 354 407 28,300 -1,450 Descending Atlanta Center
Wed 08:01:17 AM 35.3256 -82.7431 270° West 360 414 26,800 -1,550 Descending Atlanta Center
Wed 08:02:17 AM 35.3161 -82.8653 265° West 373 429 25,200 -1,400 Descending Atlanta Center
Wed 08:03:17 AM 35.2503 -82.9478 226° Southwest 337 388 24,000 -1,100 Descending Atlanta Center
Wed 08:04:17 AM 35.1672 -83.0147 213° Southwest 320 368 23,000 -500 Descending Atlanta Center
Wed 08:05:17 AM 35.0928 -83.0742 213° Southwest 327 376 23,000  Level Atlanta Center
Wed 08:06:17 AM 35.0158 -83.1333 212° Southwest 327 376 23,000  Level Atlanta Center
Wed 08:07:17 AM 34.9414 -83.1900 212° Southwest 332 382 23,000 -500 Level Atlanta Center
Wed 08:08:17 AM 34.8644 -83.2514 213° Southwest 327 376 22,000 -1,000 Descending Atlanta Center
Wed 08:09:17 AM 34.7917 -83.3078 212° Southwest 327 376 21,000 -500 Descending Atlanta Center
Wed 08:10:17 AM 34.7192 -83.3642 213° Southwest 327 376 21,000 -200 Level Atlanta Center
Wed 08:11:17 AM 34.6483 -83.4075 207° Southwest 320 368 20,600 -950 Descending Atlanta Center
Wed 08:12:17 AM 34.5669 -83.3881 169° South 292 336 19,100 -1,050 Descending Atlanta Center
Wed 08:13:17 AM 34.4853 -83.3583 163° South 293 337 18,500 -900 Descending Atlanta Center
Wed 08:14:17 AM 34.4167 -83.4117 213° Southwest 264 304 17,300 -1,400 Descending Atlanta Center
Wed 08:15:17 AM 34.3522 -83.4878 224° Southwest 285 328 15,700 -1,600 Descending Atlanta Center
Wed 08:16:17 AM 34.2964 -83.5611 227° Southwest 297 342 14,100 -850 Descending Atlanta Center
Wed 08:17:17 AM 34.2403 -83.6367 228° Southwest 304 350 14,000 -50 Descending Atlanta Center
Wed 08:18:17 AM 34.1883 -83.7047 227° Southwest 290 334 14,000  Level Atlanta Center
Wed 08:19:17 AM 34.1383 -83.7753 229° Southwest 290 334 14,000  Level Atlanta Center
Wed 08:20:17 AM 34.0842 -83.8456 227° Southwest 285 328 14,000 -109 Level Atlanta Center
Wed 08:21:07 AM 34.0333 -83.9000 222° Southwest 284 327 13,800 -491 Descending Atlanta TRACON
Wed 08:22:07 AM 33.9667 -83.9667 220° Southwest 286 329 13,100 -678 Descending Atlanta TRACON
Wed 08:23:02 AM 33.9167 -84.0167 220° Southwest 287 330 12,500 -550 Descending Atlanta TRACON
Wed 08:24:07 AM 33.8500 -84.0833 220° Southwest 279 321 12,000 -238 Descending Atlanta TRACON
Wed 08:25:08 AM 33.7833 -84.1333 212° Southwest 279 321 12,000  Level Atlanta TRACON
Wed 08:26:02 AM 33.7333 -84.1833 220° Southwest 282 325 12,000  Level Atlanta TRACON
Wed 08:27:02 AM 33.7333 -84.2833 270° West 295 339 12,000 -550 Level Atlanta TRACON
Wed 08:28:02 AM 33.7333 -84.3833 270° West 265 305 10,900 -1,200 Descending Atlanta TRACON
Wed 08:29:02 AM 33.7333 -84.4667 270° West 246 283 9,600 -1,368 Descending Atlanta TRACON
Wed 08:29:56 AM 33.7333 -84.5333 270° West 238 274 8,300 -1,421 Descending Atlanta TRACON
Wed 08:30:56 AM 33.7333 -84.6000 270° West 236 272 6,900 -1,429 Descending Atlanta TRACON
Wed 08:32:02 AM 33.7333 -84.7000 270° West 234 269 5,300 -950 Descending Atlanta TRACON
Wed 08:32:56 AM 33.7333 -84.7667 270° West 234 269 5,000 -158 Descending Atlanta TRACON
Wed 08:33:56 AM 33.7333 -84.8500 270° West 235 270 5,000  Level Atlanta TRACON
Wed 08:34:56 AM 33.6667 -84.8667 192° South 217 250 5,000  Level Atlanta TRACON
Wed 08:35:56 AM 33.6500 -84.8167 112° Southeast 192 221 5,000  Level Atlanta TRACON
Wed 08:36:56 AM 33.6500 -84.7500 90° East 178 205 5,000  Level Atlanta TRACON
Wed 08:38:02 AM 33.6500 -84.7000 90° East 176 203 5,000 -381 Level Atlanta TRACON
Wed 08:39:02 AM 33.6500 -84.6333 90° East 181 208 4,200 -895 Descending Atlanta TRACON
Wed 08:39:56 AM 33.6500 -84.5833 90° East 179 206 3,300 -947 Descending Atlanta TRACON
Wed 08:40:56 AM 33.6500 -84.5167 90° East 165 190 2,400 -900 Descending Atlanta TRACON

Login

Don't have an account? Register now (free) for customized features, flight alerts, and more!